Time,TemperatureF,DewpointF,PressureIn,WindDirection,WindDirectionDegrees,WindSpeedMPH,WindSpeedGustMPH,Humidity,HourlyPrecipIn,Conditions,Clouds,dailyrainin,SolarRadiationWatts/m^2,SoftwareType,DateUTC
2013-03-06 00:01:00,63.0,42.0,-100.00,WSW,246,0.0,4.0,46,0.00,,,0.00,0.000000,,2013-03-06 08:01:00,
2013-03-06 00:11:00,63.0,42.0,-100.00,WSW,246,0.0,4.0,46,0.00,,,0.00,0.000000,,2013-03-06 08:11:00,
2013-03-06 00:21:00,63.0,42.0,-100.00,WSW,246,0.0,4.0,46,0.00,,,0.00,0.000000,,2013-03-06 08:21:00,
2013-03-06 00:52:00,64.0,41.0,-100.00,South,188,6.0,11.0,43,0.00,,,0.00,0.000000,,2013-03-06 08:52:00,
2013-03-06 01:01:00,64.0,41.0,-100.00,South,188,6.0,11.0,43,0.00,,,0.00,0.000000,,2013-03-06 09:01:00,
2013-03-06 01:12:00,64.0,41.0,-100.00,South,188,6.0,11.0,43,0.00,,,0.00,0.000000,,2013-03-06 09:12:00,
2013-03-06 01:21:00,64.0,41.0,-100.00,South,188,6.0,11.0,43,0.00,,,0.00,0.000000,,2013-03-06 09:21:00,
2013-03-06 01:52:00,63.0,42.0,-100.00,WSW,237,7.0,11.0,46,0.00,,,0.00,0.000000,,2013-03-06 09:52:00,
2013-03-06 02:01:00,63.0,42.0,-100.00,WSW,237,7.0,11.0,46,0.00,,,0.00,0.000000,,2013-03-06 10:01:00,
2013-03-06 02:11:00,63.0,42.0,-100.00,WSW,237,7.0,11.0,46,0.00,,,0.00,0.000000,,2013-03-06 10:11:00,
2013-03-06 02:21:00,63.0,42.0,-100.00,WSW,237,7.0,11.0,46,0.00,,,0.00,0.000000,,2013-03-06 10:21:00,
2013-03-06 02:52:00,59.0,44.0,-100.00,East,88,0.0,12.0,57,0.00,,,0.00,0.000000,,2013-03-06 10:52:00,
2013-03-06 03:02:00,59.0,44.0,-100.00,East,88,0.0,12.0,57,0.00,,,0.00,0.000000,,2013-03-06 11:02:00,
2013-03-06 03:11:00,59.0,44.0,-100.00,East,88,0.0,12.0,57,0.00,,,0.00,0.000000,,2013-03-06 11:11:00,
2013-03-06 03:22:00,59.0,44.0,-100.00,East,88,0.0,12.0,57,0.00,,,0.00,0.000000,,2013-03-06 11:22:00,
2013-03-06 03:52:00,59.0,44.0,-100.00,NW,322,0.0,7.0,58,0.00,,,0.00,0.000000,,2013-03-06 11:52:00,
2013-03-06 04:02:00,59.0,44.0,-100.00,NW,322,0.0,7.0,58,0.00,,,0.00,0.000000,,2013-03-06 12:02:00,
2013-03-06 04:11:00,59.0,44.0,-100.00,NW,322,0.0,7.0,58,0.00,,,0.00,0.000000,,2013-03-06 12:11:00,
2013-03-06 04:21:00,59.0,44.0,-100.00,NW,322,0.0,7.0,58,0.00,,,0.00,0.000000,,2013-03-06 12:21:00,
2013-03-06 04:52:00,61.0,40.0,-100.00,WNW,291,7.0,13.0,46,0.00,,,0.00,0.000000,,2013-03-06 12:52:00,
2013-03-06 05:02:00,61.0,40.0,-100.00,WNW,291,7.0,13.0,46,0.00,,,0.00,0.000000,,2013-03-06 13:02:00,
2013-03-06 05:11:00,61.0,40.0,-100.00,WNW,291,7.0,13.0,46,0.00,,,0.00,0.000000,,2013-03-06 13:11:00,
2013-03-06 05:21:00,61.0,40.0,-100.00,WNW,291,7.0,13.0,46,0.00,,,0.00,0.000000,,2013-03-06 13:21:00,
2013-03-06 05:52:00,60.0,37.0,-100.00,NW,304,3.0,12.0,42,0.00,,,0.00,0.000000,,2013-03-06 13:52:00,
2013-03-06 06:01:00,60.0,37.0,-100.00,NW,304,3.0,12.0,42,0.00,,,0.00,0.000000,,2013-03-06 14:01:00,
2013-03-06 06:11:00,60.0,37.0,-100.00,NW,304,3.0,12.0,42,0.00,,,0.00,0.000000,,2013-03-06 14:11:00,
2013-03-06 06:21:00,60.0,37.0,-100.00,NW,304,3.0,12.0,42,0.00,,,0.00,0.000000,,2013-03-06 14:21:00,
2013-03-06 06:52:00,60.0,40.0,-100.00,North,8,1.0,10.0,47,0.00,,,0.00,13.000000,,2013-03-06 14:52:00,
2013-03-06 07:01:00,60.0,40.0,-100.00,North,8,1.0,10.0,47,0.00,,,0.00,13.000000,,2013-03-06 15:01:00,
2013-03-06 07:11:00,60.0,40.0,-100.00,North,8,1.0,10.0,47,0.00,,,0.00,13.000000,,2013-03-06 15:11:00,
2013-03-06 07:21:00,60.0,40.0,-100.00,North,8,1.0,10.0,47,0.00,,,0.00,13.000000,,2013-03-06 15:21:00,
2013-03-06 07:52:00,63.0,41.0,-100.00,WNW,286,5.0,8.0,45,0.00,,,0.00,174.000000,,2013-03-06 15:52:00,
2013-03-06 08:11:00,63.0,41.0,-100.00,WNW,286,5.0,8.0,45,0.00,,,0.00,174.000000,,2013-03-06 16:11:00,
2013-03-06 08:21:00,63.0,41.0,-100.00,WNW,286,5.0,8.0,45,0.00,,,0.00,174.000000,,2013-03-06 16:21:00,
2013-03-06 08:52:00,66.0,39.0,-100.00,NW,320,3.0,10.0,37,0.00,,,0.00,387.000000,,2013-03-06 16:52:00,
2013-03-06 09:01:00,66.0,39.0,-100.00,NW,320,3.0,10.0,37,0.00,,,0.00,387.000000,,2013-03-06 17:01:00,
2013-03-06 09:11:00,66.0,39.0,-100.00,NW,320,3.0,10.0,37,0.00,,,0.00,387.000000,,2013-03-06 17:11:00,
2013-03-06 09:21:00,66.0,39.0,-100.00,NW,320,3.0,10.0,37,0.00,,,0.00,387.000000,,2013-03-06 17:21:00,
2013-03-06 09:27:00,72.0,37.0,-100.00,WSW,240,0.0,8.0,28,0.00,,,0.00,595.000000,,2013-03-06 17:27:00,
2013-03-06 09:52:00,72.0,37.0,-100.00,WSW,240,0.0,8.0,28,0.00,,,0.00,595.000000,,2013-03-06 17:52:00,
2013-03-06 10:01:00,72.0,37.0,-100.00,WSW,240,0.0,8.0,28,0.00,,,0.00,595.000000,,2013-03-06 18:01:00,
2013-03-06 10:52:00,76.0,36.0,-100.00,WNW,287,1.0,5.0,23,0.00,,,0.00,878.000000,,2013-03-06 18:52:00,
2013-03-06 11:02:00,76.0,36.0,-100.00,WNW,287,1.0,5.0,23,0.00,,,0.00,878.000000,,2013-03-06 19:02:00,
2013-03-06 11:11:00,76.0,36.0,-100.00,WNW,287,1.0,5.0,23,0.00,,,0.00,878.000000,,2013-03-06 19:11:00,
2013-03-06 11:21:00,76.0,36.0,-100.00,WNW,287,1.0,5.0,23,0.00,,,0.00,878.000000,,2013-03-06 19:21:00,
2013-03-06 11:53:00,77.0,30.0,-100.00,West,274,2.0,6.0,18,0.00,,,0.00,1007.000000,,2013-03-06 19:53:00,
2013-03-06 12:52:00,78.0,30.0,-100.00,NW,326,3.0,7.0,17,0.00,,,0.00,1048.000000,,2013-03-06 20:52:00,
2013-03-06 13:52:00,82.0,31.0,-100.00,SW,232,3.0,9.0,16,0.00,,,0.00,997.000000,,2013-03-06 21:52:00,
2013-03-06 14:01:00,82.0,31.0,-100.00,SW,232,3.0,9.0,16,0.00,,,0.00,997.000000,,2013-03-06 22:01:00,
2013-03-06 14:11:00,82.0,31.0,-100.00,SW,232,3.0,9.0,16,0.00,,,0.00,997.000000,,2013-03-06 22:11:00,
2013-03-06 14:21:00,82.0,31.0,-100.00,SW,232,3.0,9.0,16,0.00,,,0.00,997.000000,,2013-03-06 22:21:00,
2013-03-06 14:52:00,82.0,33.0,-100.00,SSW,212,5.0,11.0,17,0.00,,,0.00,861.000000,,2013-03-06 22:52:00,
2013-03-06 15:01:00,82.0,33.0,-100.00,SSW,212,5.0,11.0,17,0.00,,,0.00,861.000000,,2013-03-06 23:01:00,
2013-03-06 15:11:00,82.0,33.0,-100.00,SSW,212,5.0,11.0,17,0.00,,,0.00,861.000000,,2013-03-06 23:11:00,
2013-03-06 15:21:00,82.0,33.0,-100.00,SSW,212,5.0,11.0,17,0.00,,,0.00,861.000000,,2013-03-06 23:21:00,
2013-03-06 15:52:00,81.0,31.0,-100.00,South,173,6.0,13.0,16,0.00,,,0.00,660.000000,,2013-03-06 23:52:00,
2013-03-06 16:01:00,81.0,31.0,-100.00,South,173,6.0,13.0,16,0.00,,,0.00,660.000000,,2013-03-07 00:01:00,
2013-03-06 16:11:00,81.0,31.0,-100.00,South,173,6.0,13.0,16,0.00,,,0.00,660.000000,,2013-03-07 00:11:00,
2013-03-06 16:21:00,81.0,31.0,-100.00,South,173,6.0,13.0,16,0.00,,,0.00,660.000000,,2013-03-07 00:21:00,
2013-03-06 16:52:00,80.0,28.0,-100.00,South,177,7.0,13.0,15,0.00,,,0.00,404.000000,,2013-03-07 00:52:00,
2013-03-06 17:01:00,80.0,28.0,-100.00,South,177,7.0,13.0,15,0.00,,,0.00,404.000000,,2013-03-07 01:01:00,
2013-03-06 17:11:00,80.0,28.0,-100.00,South,177,7.0,13.0,15,0.00,,,0.00,404.000000,,2013-03-07 01:11:00,
2013-03-06 17:21:00,80.0,28.0,-100.00,South,177,7.0,13.0,15,0.00,,,0.00,404.000000,,2013-03-07 01:21:00,
2013-03-06 17:52:00,77.0,24.0,-100.00,SSW,205,7.0,13.0,14,0.00,,,0.00,107.000000,,2013-03-07 01:52:00,
2013-03-06 18:01:00,77.0,24.0,-100.00,SSW,205,7.0,13.0,14,0.00,,,0.00,107.000000,,2013-03-07 02:01:00,
2013-03-06 18:11:00,77.0,24.0,-100.00,SSW,205,7.0,13.0,14,0.00,,,0.00,107.000000,,2013-03-07 02:11:00,
2013-03-06 18:21:00,77.0,24.0,-100.00,SSW,205,7.0,13.0,14,0.00,,,0.00,107.000000,,2013-03-07 02:21:00,
2013-03-06 19:01:00,73.0,32.0,-100.00,SW,223,7.0,12.0,22,0.00,,,0.00,3.000000,,2013-03-07 03:01:00,
2013-03-06 19:11:00,73.0,32.0,-100.00,SW,223,7.0,12.0,22,0.00,,,0.00,3.000000,,2013-03-07 03:11:00,
2013-03-06 19:21:00,73.0,32.0,-100.00,SW,223,7.0,12.0,22,0.00,,,0.00,3.000000,,2013-03-07 03:21:00,
2013-03-06 19:52:00,71.0,34.0,-100.00,SW,220,7.0,12.0,26,0.00,,,0.00,0.000000,,2013-03-07 03:52:00,
2013-03-06 20:01:00,71.0,34.0,-100.00,SW,220,7.0,12.0,26,0.00,,,0.00,0.000000,,2013-03-07 04:01:00,
2013-03-06 20:11:00,71.0,34.0,-100.00,SW,220,7.0,12.0,26,0.00,,,0.00,0.000000,,2013-03-07 04:11:00,
2013-03-06 20:21:00,71.0,34.0,-100.00,SW,220,7.0,12.0,26,0.00,,,0.00,0.000000,,2013-03-07 04:21:00,
2013-03-06 20:52:00,67.0,34.0,-100.00,WNW,294,2.0,10.0,29,0.00,,,0.00,0.000000,,2013-03-07 04:52:00,
2013-03-06 21:01:00,67.0,34.0,-100.00,WNW,294,2.0,10.0,29,0.00,,,0.00,0.000000,,2013-03-07 05:01:00,
2013-03-06 21:12:00,67.0,34.0,-100.00,WNW,294,2.0,10.0,29,0.00,,,0.00,0.000000,,2013-03-07 05:12:00,
2013-03-06 21:22:00,67.0,34.0,-100.00,WNW,294,2.0,10.0,29,0.00,,,0.00,0.000000,,2013-03-07 05:22:00,
2013-03-06 21:52:00,66.0,39.0,-100.00,WNW,294,9.0,17.0,37,0.00,,,0.00,0.000000,,2013-03-07 05:52:00,
2013-03-06 22:01:00,66.0,39.0,-100.00,WNW,294,9.0,17.0,37,0.00,,,0.00,0.000000,,2013-03-07 06:01:00,
2013-03-06 22:11:00,66.0,39.0,-100.00,WNW,294,9.0,17.0,37,0.00,,,0.00,0.000000,,2013-03-07 06:11:00,
2013-03-06 22:21:00,66.0,39.0,-100.00,WNW,294,9.0,17.0,37,0.00,,,0.00,0.000000,,2013-03-07 06:21:00,
2013-03-06 22:52:00,65.0,39.0,-100.00,WSW,255,2.0,14.0,39,0.00,,,0.00,0.000000,,2013-03-07 06:52:00,
2013-03-06 23:01:00,65.0,39.0,-100.00,WSW,255,2.0,14.0,39,0.00,,,0.00,0.000000,,2013-03-07 07:01:00,
2013-03-06 23:11:00,65.0,39.0,-100.00,WSW,255,2.0,14.0,39,0.00,,,0.00,0.000000,,2013-03-07 07:11:00,
2013-03-06 23:21:00,65.0,39.0,-100.00,WSW,255,2.0,14.0,39,0.00,,,0.00,0.000000,,2013-03-07 07:21:00,
2013-03-06 23:52:00,63.0,40.0,-100.00,ENE,58,0.0,10.0,42,0.00,,,0.00,0.000000,,2013-03-07 07:52:00,